createdAt,value
2018-05-11T00:00:05.346Z,13.9
2018-05-11T00:01:04.664Z,13.9
2018-05-11T00:02:03.983Z,13.9
2018-05-11T00:02:34.610Z,13.9
2018-05-11T00:03:04.634Z,13.8
2018-05-11T00:04:02.450Z,13.9
2018-05-11T00:05:01.895Z,13.8
2018-05-11T00:07:59.374Z,13.9
2018-05-11T00:08:58.796Z,13.9
2018-05-11T00:09:57.892Z,13.9
2018-05-11T00:10:57.100Z,13.9
2018-05-11T00:11:56.424Z,13.9
2018-05-11T00:12:55.856Z,13.9
2018-05-11T00:13:54.958Z,13.8
2018-05-11T00:14:54.277Z,13.8
2018-05-11T00:15:53.703Z,13.8
2018-05-11T00:16:53.139Z,13.9
2018-05-11T00:17:52.062Z,13.8
2018-05-11T00:18:51.165Z,13.8
2018-05-11T00:19:50.372Z,13.8
2018-05-11T00:20:49.587Z,13.9
2018-05-11T00:21:49.086Z,13.9
2018-05-11T00:22:48.302Z,13.9
2018-05-11T00:23:47.624Z,13.8
2018-05-11T00:25:46.244Z,13.9
2018-05-11T00:26:45.404Z,13.8
2018-05-11T00:27:44.724Z,13.8
2018-05-11T00:28:44.152Z,13.8
2018-05-11T00:29:43.257Z,13.8
2018-05-11T00:30:42.690Z,13.8
2018-05-11T00:31:41.617Z,13.8
2018-05-11T00:32:41.037Z,13.8
2018-05-11T00:33:40.034Z,13.8
2018-05-11T00:34:39.458Z,13.8
2018-05-11T00:35:38.670Z,13.8
2018-05-11T00:36:37.988Z,13.8
2018-05-11T00:37:37.436Z,13.8
2018-05-11T00:38:36.242Z,13.8
2018-05-11T00:39:35.456Z,13.8
2018-05-11T00:40:34.667Z,13.8
2018-05-11T00:41:33.887Z,13.8
2018-05-11T00:42:33.208Z,13.8
2018-05-11T00:43:32.415Z,13.8
2018-05-11T00:44:31.621Z,13.8
2018-05-11T00:45:31.229Z,13.8
2018-05-11T00:46:30.554Z,13.7
2018-05-11T00:47:29.813Z,13.7
2018-05-11T00:48:28.920Z,13.7
2018-05-11T00:49:28.024Z,13.7
2018-05-11T00:50:27.351Z,13.7
2018-05-11T00:51:26.686Z,13.7
2018-05-11T00:52:26.023Z,13.7
2018-05-11T00:53:25.350Z,13.7
2018-05-11T00:54:24.565Z,13.7
2018-05-11T00:55:23.992Z,13.7
2018-05-11T00:56:23.095Z,13.7
2018-05-11T00:57:22.313Z,13.6
2018-05-11T00:58:21.537Z,13.6
2018-05-11T00:59:20.745Z,13.6
2018-05-11T01:00:20.179Z,13.6
2018-05-11T01:01:19.390Z,13.6
2018-05-11T01:02:18.741Z,13.6
2018-05-11T01:03:17.342Z,13.6
2018-05-11T01:05:15.941Z,13.5
2018-05-11T01:06:15.651Z,13.5
2018-05-11T01:07:14.868Z,13.5
2018-05-11T01:10:12.463Z,13.6
2018-05-11T01:10:42.886Z,13.6
2018-05-11T01:11:13.510Z,13.6
2018-05-11T01:11:44.036Z,13.6
2018-05-11T01:12:14.771Z,13.5
2018-05-11T01:12:45.015Z,13.5
2018-05-11T01:14:09.631Z,13.5
2018-05-11T01:15:08.750Z,13.5
2018-05-11T01:16:07.961Z,13.5
2018-05-11T01:17:07.381Z,13.5
2018-05-11T01:18:06.599Z,13.5
2018-05-11T01:19:05.814Z,13.5
2018-05-11T01:20:05.146Z,13.4
2018-05-11T01:21:04.460Z,13.4
2018-05-11T01:21:34.984Z,13.4
2018-05-11T01:22:05.513Z,13.3
2018-05-11T01:22:36.259Z,13.3
2018-05-11T01:23:06.668Z,13.3
2018-05-11T01:23:37.295Z,13.3
2018-05-11T01:25:01.390Z,13.3
2018-05-11T01:26:00.820Z,13.2
2018-05-11T01:26:59.527Z,13.2
2018-05-11T01:27:58.734Z,13.3
2018-05-11T01:28:57.954Z,13.2
2018-05-11T01:29:57.272Z,13.2
2018-05-11T01:30:56.997Z,13.2
2018-05-11T01:31:55.900Z,13.2
2018-05-11T01:32:55.111Z,13.1
2018-05-11T01:33:25.649Z,13.1
2018-05-11T01:33:56.386Z,13.1
2018-05-11T01:34:26.423Z,13.1
2018-05-11T01:34:56.954Z,13.1
2018-05-11T01:35:27.578Z,13.1
2018-05-11T01:35:58.210Z,13.1
2018-05-11T01:36:52.099Z,13.1
2018-05-11T01:37:51.432Z,13.1
2018-05-11T01:38:50.537Z,13.1
2018-05-11T01:39:50.509Z,13
2018-05-11T01:40:49.222Z,13
2018-05-11T01:41:48.318Z,13
2018-05-11T01:42:47.635Z,12.9
2018-05-11T01:43:46.946Z,12.9
2018-05-11T01:44:46.268Z,12.9
2018-05-11T01:45:45.588Z,12.9
2018-05-11T01:46:44.403Z,12.9
2018-05-11T01:47:43.829Z,12.9
2018-05-11T01:48:43.137Z,12.8
2018-05-11T01:49:42.561Z,12.8
2018-05-11T01:50:41.374Z,12.8
2018-05-11T01:51:40.690Z,12.8
2018-05-11T01:52:40.014Z,12.8
2018-05-11T01:53:10.637Z,12.8
2018-05-11T01:54:38.311Z,12.8
2018-05-11T01:55:37.630Z,12.8
2018-05-11T01:56:36.963Z,12.8
2018-05-11T01:58:35.665Z,12.7
2018-05-11T01:59:34.376Z,12.7
2018-05-11T02:00:33.975Z,12.7
2018-05-11T02:01:33.406Z,12.8
2018-05-11T02:03:31.613Z,12.7
2018-05-11T02:04:02.133Z,12.7
2018-05-11T02:04:32.560Z,12.7
2018-05-11T02:05:03.234Z,12.7
2018-05-11T02:05:33.738Z,12.7
2018-05-11T02:06:29.543Z,12.7
2018-05-11T02:07:28.484Z,12.7
2018-05-11T02:08:27.926Z,12.7
2018-05-11T02:09:26.927Z,12.7
2018-05-11T02:10:26.135Z,12.7
2018-05-11T02:11:25.555Z,12.7
2018-05-11T02:12:24.763Z,12.6
2018-05-11T02:13:23.972Z,12.6
2018-05-11T02:14:23.184Z,12.7
2018-05-11T02:14:53.493Z,12.7
2018-05-11T02:15:24.128Z,12.6
2018-05-11T02:16:21.826Z,12.6
2018-05-11T02:17:21.143Z,12.6
2018-05-11T02:18:20.458Z,12.6
2018-05-11T02:19:19.375Z,12.6
2018-05-11T02:20:18.590Z,12.7
2018-05-11T02:21:17.589Z,12.7
2018-05-11T02:22:17.204Z,12.7
2018-05-11T02:23:16.708Z,12.6
2018-05-11T02:24:15.636Z,12.6
2018-05-11T02:25:15.063Z,12.6
2018-05-11T02:26:13.777Z,12.6
2018-05-11T02:27:13.095Z,12.6
2018-05-11T02:29:11.905Z,12.5
2018-05-11T02:30:11.137Z,12.5
2018-05-11T02:31:09.977Z,12.5
2018-05-11T02:32:09.303Z,12.5
2018-05-11T02:33:08.748Z,12.5
2018-05-11T02:34:08.085Z,12.5
2018-05-11T02:35:06.806Z,12.5
2018-05-11T02:36:06.411Z,12.5
2018-05-11T02:37:05.743Z,12.5
2018-05-11T02:38:04.466Z,12.5
2018-05-11T02:39:03.797Z,12.5
2018-05-11T02:40:02.800Z,12.5
2018-05-11T02:41:02.408Z,12.5
2018-05-11T02:42:01.638Z,12.5
2018-05-11T02:43:00.861Z,12.5
2018-05-11T02:44:59.464Z,12.4
2018-05-11T02:45:58.908Z,12.4
2018-05-11T02:46:57.736Z,12.4
2018-05-11T02:47:57.062Z,12.4
2018-05-11T02:48:56.494Z,12.4
2018-05-11T02:49:55.711Z,12.4
2018-05-11T02:51:53.915Z,12.4
2018-05-11T02:54:51.607Z,12.4
2018-05-11T02:55:50.944Z,12.4
2018-05-11T02:56:50.109Z,12.5
2018-05-11T02:57:49.677Z,12.4
2018-05-11T02:58:48.616Z,12.4
2018-05-11T02:59:19.152Z,12.4
2018-05-11T02:59:49.801Z,12.4
2018-05-11T03:00:20.458Z,12.4
2018-05-11T03:02:45.442Z,12.4
2018-05-11T03:04:44.160Z,12.4
2018-05-11T03:05:42.885Z,12.4
2018-05-11T03:06:42.325Z,12.4
2018-05-11T03:07:41.764Z,12.4
2018-05-11T03:08:40.704Z,12.4
2018-05-11T03:09:10.961Z,12.4
2018-05-11T03:09:41.505Z,12.4
2018-05-11T03:10:12.161Z,12.4
2018-05-11T03:10:42.806Z,12.3
2018-05-11T03:11:13.480Z,12.3
2018-05-11T03:12:37.472Z,12.3
2018-05-11T03:13:36.706Z,12.3
2018-05-11T03:14:36.052Z,12.3
2018-05-11T03:15:35.402Z,12.3
2018-05-11T03:16:34.529Z,12.3
2018-05-11T03:17:33.963Z,12.3
2018-05-11T03:18:34.012Z,12.3
2018-05-11T03:19:32.463Z,12.3
2018-05-11T03:20:31.174Z,12.3
2018-05-11T03:21:30.601Z,12.3
2018-05-11T03:22:30.028Z,12.2
2018-05-11T03:23:29.456Z,12.3
2018-05-11T03:24:28.287Z,12.3
2018-05-11T03:25:27.396Z,12.3
2018-05-11T03:26:26.714Z,12.3
2018-05-11T03:27:26.034Z,12.3
2018-05-11T03:28:25.466Z,12.3
2018-05-11T03:28:55.595Z,12.3
2018-05-11T03:29:26.389Z,12.3
2018-05-11T03:29:56.644Z,12.3
2018-05-11T03:30:27.069Z,12.3
2018-05-11T03:30:57.494Z,12.3
2018-05-11T03:31:28.049Z,12.3
2018-05-11T03:32:22.232Z,12.3
2018-05-11T03:33:21.569Z,12.3
2018-05-11T03:34:20.898Z,12.3
2018-05-11T03:35:19.720Z,12.2
2018-05-11T03:37:18.319Z,12.2
2018-05-11T03:39:16.776Z,12.2
2018-05-11T03:39:47.310Z,12.2
2018-05-11T03:40:17.946Z,12.2
2018-05-11T03:40:48.338Z,12.2
2018-05-11T03:41:18.875Z,12.2
2018-05-11T03:41:49.629Z,12.2
2018-05-11T03:42:19.774Z,12.2
2018-05-11T03:42:50.091Z,12.2
2018-05-11T03:44:12.968Z,12.2
2018-05-11T03:45:12.151Z,12.2
2018-05-11T03:46:11.472Z,12.2
2018-05-11T03:47:10.797Z,12.2
2018-05-11T03:48:09.401Z,12.3
2018-05-11T03:49:09.232Z,12.2
2018-05-11T03:50:08.063Z,12.2
2018-05-11T03:50:38.697Z,12.2
2018-05-11T03:51:09.221Z,12.2
2018-05-11T03:51:39.863Z,12.2
2018-05-11T03:52:10.613Z,12.2
2018-05-11T03:52:40.857Z,12.2
2018-05-11T03:54:05.360Z,12.2
2018-05-11T03:55:03.969Z,12.2
2018-05-11T03:56:03.076Z,12.2
2018-05-11T03:57:02.687Z,12.2
2018-05-11T03:58:02.028Z,12.2
2018-05-11T03:59:01.250Z,12.2
2018-05-11T04:00:59.345Z,12.2
2018-05-11T04:01:58.577Z,12.2
2018-05-11T04:02:58.009Z,12.2
2018-05-11T04:03:57.329Z,12.2
2018-05-11T04:04:56.265Z,12.2
2018-05-11T04:05:55.590Z,12.2
2018-05-11T04:06:54.801Z,12.2
2018-05-11T04:07:54.238Z,12.2
2018-05-11T04:08:53.064Z,12.2
2018-05-11T04:09:52.166Z,12.2
2018-05-11T04:10:51.480Z,12.2
2018-05-11T04:11:50.691Z,12.2
2018-05-11T04:13:49.295Z,12.2
2018-05-11T04:14:48.620Z,12.2
2018-05-11T04:15:48.048Z,12.2
2018-05-11T04:16:46.873Z,12.1
2018-05-11T04:17:46.203Z,12.2
2018-05-11T04:18:45.517Z,12.2
2018-05-11T04:19:44.815Z,12.2
2018-05-11T04:20:43.873Z,12.2
2018-05-11T04:21:43.292Z,12.2
2018-05-11T04:22:13.537Z,12.2
2018-05-11T04:22:43.467Z,12.2
2018-05-11T04:23:13.890Z,12.2
2018-05-11T04:23:44.521Z,12.2
2018-05-11T04:24:40.885Z,12.2
2018-05-11T04:25:40.322Z,12.2
2018-05-11T04:26:39.251Z,12.2
2018-05-11T04:27:38.569Z,12.2
2018-05-11T04:28:37.512Z,12.2
2018-05-11T04:29:36.726Z,12.2
2018-05-11T04:30:35.935Z,12.2
2018-05-11T04:31:35.045Z,12.2
2018-05-11T04:32:34.254Z,12.2
2018-05-11T04:33:33.585Z,12.2
2018-05-11T04:34:33.022Z,12.2
2018-05-11T04:35:32.363Z,12.2
2018-05-11T04:36:31.075Z,12.2
2018-05-11T04:37:30.294Z,12.2
2018-05-11T04:38:29.618Z,12.2
2018-05-11T04:39:28.841Z,12.2
2018-05-11T04:40:28.161Z,12.2
2018-05-11T04:41:27.384Z,12.2
2018-05-11T04:42:26.824Z,12.2
2018-05-11T04:43:25.775Z,12.2
2018-05-11T04:44:25.094Z,12.2
2018-05-11T04:45:24.433Z,12.2
2018-05-11T04:46:23.346Z,12.2
2018-05-11T04:47:22.459Z,12.2
2018-05-11T04:49:20.966Z,12.2
2018-05-11T04:50:20.076Z,12.2
2018-05-11T04:51:19.396Z,12.2
2018-05-11T04:52:18.723Z,12.2
2018-05-11T04:53:18.053Z,12.2
2018-05-11T04:55:16.259Z,12.3
2018-05-11T04:56:15.366Z,12.3
2018-05-11T04:57:14.668Z,12.2
2018-05-11T04:58:13.890Z,12.2
2018-05-11T04:59:13.122Z,12.2
2018-05-11T05:00:12.344Z,12.2
2018-05-11T05:01:11.554Z,12.3
2018-05-11T05:02:10.995Z,12.3
2018-05-11T05:03:10.426Z,12.3
2018-05-11T05:04:09.245Z,12.4
2018-05-11T05:05:08.462Z,12.4
2018-05-11T05:06:07.799Z,12.4
2018-05-11T05:07:07.023Z,12.4
2018-05-11T05:08:06.023Z,12.3
2018-05-11T05:09:05.450Z,12.3
2018-05-11T05:10:04.775Z,12.3
2018-05-11T05:11:03.885Z,12.4
2018-05-11T05:12:03.226Z,12.3
2018-05-11T05:13:02.347Z,12.3
2018-05-11T05:14:01.674Z,12.3
2018-05-11T05:15:01.003Z,12.3
2018-05-11T05:15:59.712Z,12.4
2018-05-11T05:16:58.838Z,12.4
2018-05-11T05:17:29.367Z,12.4
2018-05-11T05:18:00.001Z,12.4
2018-05-11T05:18:57.717Z,12.4
2018-05-11T05:19:56.646Z,12.4
2018-05-11T05:20:55.882Z,12.4
2018-05-11T05:21:55.094Z,12.4
2018-05-11T05:22:54.313Z,12.5
2018-05-11T05:24:53.052Z,12.4
2018-05-11T05:25:51.961Z,12.4
2018-05-11T05:26:51.402Z,12.4
2018-05-11T05:27:21.608Z,12.4
2018-05-11T05:27:51.519Z,12.4
2018-05-11T05:28:22.049Z,12.4
2018-05-11T05:28:52.470Z,12.5
2018-05-11T05:29:49.165Z,12.4
2018-05-11T05:30:48.284Z,12.5
2018-05-11T05:31:47.508Z,12.5
2018-05-11T05:32:46.938Z,12.5
2018-05-11T05:33:45.760Z,12.5
2018-05-11T05:34:44.879Z,12.5
2018-05-11T05:35:44.323Z,12.5
2018-05-11T05:36:43.645Z,12.5
2018-05-11T05:37:43.084Z,12.5
2018-05-11T05:38:42.036Z,12.5
2018-05-11T05:39:41.150Z,12.5
2018-05-11T05:40:40.273Z,12.5
2018-05-11T05:41:39.724Z,12.5
2018-05-11T05:42:39.070Z,12.5
2018-05-11T05:43:38.027Z,12.5
2018-05-11T05:44:37.466Z,12.5
2018-05-11T05:45:36.784Z,12.4
2018-05-11T05:46:35.609Z,12.4
2018-05-11T05:47:34.934Z,12.4
2018-05-11T05:48:34.251Z,12.4
2018-05-11T05:49:33.582Z,12.4
2018-05-11T05:50:32.910Z,12.4
2018-05-11T05:51:31.750Z,12.5
2018-05-11T05:52:30.981Z,12.5
2018-05-11T05:53:30.296Z,12.4
2018-05-11T05:54:29.525Z,12.4
2018-05-11T05:55:28.738Z,12.4
2018-05-11T05:56:28.062Z,12.4
2018-05-11T05:57:27.500Z,12.4
2018-05-11T05:58:26.784Z,12.4
2018-05-11T05:58:56.913Z,12.4
2018-05-11T05:59:27.470Z,12.4
2018-05-11T05:59:58.644Z,12.4
2018-05-11T06:01:24.133Z,12.4
2018-05-11T06:02:23.899Z,12.4
2018-05-11T06:03:22.729Z,12.4
2018-05-11T06:05:20.939Z,12.4
2018-05-11T06:06:19.943Z,12.4
2018-05-11T06:07:19.276Z,12.4
2018-05-11T06:08:19.374Z,12.4
2018-05-11T06:09:17.789Z,12.5
2018-05-11T06:09:48.423Z,12.5
2018-05-11T06:10:18.957Z,12.5
2018-05-11T06:11:16.269Z,12.5
2018-05-11T06:12:15.634Z,12.5
2018-05-11T06:13:14.926Z,12.5
2018-05-11T06:14:14.354Z,12.5
2018-05-11T06:15:13.070Z,12.5
2018-05-11T06:16:12.504Z,12.5
2018-05-11T06:17:11.934Z,12.6
2018-05-11T06:18:10.764Z,12.6
2018-05-11T06:19:09.990Z,12.6
2018-05-11T06:20:09.319Z,12.6
2018-05-11T06:20:39.689Z,12.6
2018-05-11T06:21:10.221Z,12.6
2018-05-11T06:22:08.720Z,12.6
2018-05-11T06:23:07.051Z,12.5
2018-05-11T06:24:06.280Z,12.6
2018-05-11T06:25:05.518Z,12.6
2018-05-11T06:25:36.260Z,12.6
2018-05-11T06:26:06.290Z,12.6
2018-05-11T06:27:03.893Z,12.6
2018-05-11T06:28:02.999Z,12.6
2018-05-11T06:29:02.230Z,12.7
2018-05-11T06:30:01.763Z,12.7
2018-05-11T06:31:01.202Z,12.7
2018-05-11T06:32:00.143Z,12.8
2018-05-11T06:32:59.366Z,12.7
2018-05-11T06:33:58.800Z,12.7
2018-05-11T06:34:57.619Z,12.7
2018-05-11T06:35:57.063Z,12.7
2018-05-11T06:36:27.199Z,12.7
2018-05-11T06:36:57.729Z,12.7
2018-05-11T06:37:55.542Z,12.7
2018-05-11T06:38:54.874Z,12.7
2018-05-11T06:39:53.808Z,12.6
2018-05-11T06:41:52.630Z,12.6
2018-05-11T06:42:51.354Z,12.6
2018-05-11T06:43:50.684Z,12.7
2018-05-11T06:44:49.912Z,12.7
2018-05-11T06:45:49.131Z,12.7
2018-05-11T06:46:48.345Z,12.7
2018-05-11T06:47:47.563Z,12.7
2018-05-11T06:48:46.682Z,12.7
2018-05-11T06:50:45.387Z,12.7
2018-05-11T06:51:44.494Z,12.8
2018-05-11T06:52:43.951Z,12.8
2018-05-11T06:53:43.376Z,12.8
2018-05-11T06:54:42.093Z,12.8
2018-05-11T06:55:41.547Z,12.8
2018-05-11T06:56:40.761Z,12.8
2018-05-11T06:57:39.977Z,12.9
2018-05-11T06:58:39.300Z,12.9
2018-05-11T06:59:38.630Z,12.9
2018-05-11T07:00:37.349Z,12.9
2018-05-11T07:01:37.166Z,12.9
2018-05-11T07:02:36.097Z,12.9
2018-05-11T07:03:35.318Z,12.9
2018-05-11T07:04:34.654Z,12.9
2018-05-11T07:05:33.981Z,12.9
2018-05-11T07:06:32.707Z,12.9
2018-05-11T07:07:31.927Z,12.9
2018-05-11T07:08:02.880Z,12.9
2018-05-11T07:09:31.005Z,12.9
2018-05-11T07:10:29.708Z,13
2018-05-11T07:11:28.925Z,13
2018-05-11T07:12:28.454Z,13
2018-05-11T07:13:27.667Z,13
2018-05-11T07:14:27.035Z,13
2018-05-11T07:15:26.481Z,13
2018-05-11T07:16:25.409Z,13
2018-05-11T07:17:24.723Z,13
2018-05-11T07:18:23.943Z,13
2018-05-11T07:18:54.591Z,13
2018-05-11T07:20:22.107Z,13
2018-05-11T07:21:21.439Z,13.1
2018-05-11T07:22:20.649Z,13.1
2018-05-11T07:23:19.874Z,13.1
2018-05-11T07:24:19.210Z,13.1
2018-05-11T07:25:18.540Z,13.1
2018-05-11T07:26:17.749Z,13.1
2018-05-11T07:27:16.970Z,13.1
2018-05-11T07:28:16.402Z,13.1
2018-05-11T07:29:15.337Z,13.1
2018-05-11T07:29:45.970Z,13.1
2018-05-11T07:31:13.878Z,13.2
2018-05-11T07:32:13.206Z,13.1
2018-05-11T07:33:12.546Z,13.2
2018-05-11T07:34:11.766Z,13.2
2018-05-11T07:35:10.585Z,13.2
2018-05-11T07:36:09.704Z,13.2
2018-05-11T07:37:09.423Z,13.3
2018-05-11T07:38:08.645Z,13.2
2018-05-11T07:39:08.071Z,13.1
2018-05-11T07:40:06.798Z,13.2
2018-05-11T07:41:06.031Z,13.3
2018-05-11T07:42:05.144Z,13.3
2018-05-11T07:43:05.497Z,13.2
2018-05-11T07:44:03.823Z,13.3
2018-05-11T07:45:03.160Z,13.3
2018-05-11T07:46:02.609Z,13.3
2018-05-11T07:47:01.439Z,13.3
2018-05-11T07:48:00.910Z,13.3
2018-05-11T07:49:00.126Z,13.3
2018-05-11T07:49:59.458Z,13.3
2018-05-11T07:50:58.414Z,13.3
2018-05-11T07:51:57.536Z,13.3
2018-05-11T07:52:57.359Z,13.3
2018-05-11T07:53:56.287Z,13.3
2018-05-11T07:54:55.620Z,13.3
2018-05-11T07:55:54.845Z,13.4
2018-05-11T07:56:54.179Z,13.4
2018-05-11T07:57:53.512Z,13.4
2018-05-11T07:58:52.435Z,13.5
2018-05-11T07:59:51.545Z,13.5
2018-05-11T08:00:51.272Z,13.5
2018-05-11T08:01:49.897Z,13.5
2018-05-11T08:02:49.733Z,13.5
2018-05-11T08:03:48.652Z,13.5
2018-05-11T08:04:47.992Z,13.5
2018-05-11T08:05:47.211Z,13.6
2018-05-11T08:06:46.579Z,13.5
2018-05-11T08:07:45.898Z,13.5
2018-05-11T08:08:45.333Z,13.4
2018-05-11T08:09:44.161Z,13.3
2018-05-11T08:10:43.494Z,13.3
2018-05-11T08:11:42.816Z,13.3
2018-05-11T08:12:42.106Z,13.3
2018-05-11T08:14:40.426Z,13.4
2018-05-11T08:16:39.244Z,13.5
2018-05-11T08:17:38.180Z,13.5
2018-05-11T08:18:37.290Z,13.5
2018-05-11T08:19:36.502Z,13.4
2018-05-11T08:20:35.715Z,13.4
2018-05-11T08:21:34.946Z,13.5
2018-05-11T08:22:34.167Z,13.5
2018-05-11T08:23:33.780Z,13.5
2018-05-11T08:24:33.107Z,13.5
2018-05-11T08:25:03.543Z,13.5
2018-05-11T08:25:34.189Z,13.5
2018-05-11T08:26:31.842Z,13.5
2018-05-11T08:27:30.682Z,13.6
2018-05-11T08:28:29.997Z,13.6
2018-05-11T08:29:29.213Z,13.7
2018-05-11T08:30:28.324Z,13.7
2018-05-11T08:31:27.385Z,13.7
2018-05-11T08:32:26.713Z,13.8
2018-05-11T08:33:26.145Z,13.8
2018-05-11T08:34:25.256Z,13.8
2018-05-11T08:35:24.704Z,13.8
2018-05-11T08:36:23.922Z,13.8
2018-05-11T08:37:23.036Z,13.8
2018-05-11T08:38:22.272Z,13.7
2018-05-11T08:39:21.497Z,13.7
2018-05-11T08:40:20.817Z,13.7
2018-05-11T08:41:20.261Z,13.7
2018-05-11T08:42:19.583Z,13.7
2018-05-11T08:43:18.908Z,13.7
2018-05-11T08:43:49.668Z,13.7
2018-05-11T08:44:19.695Z,13.7
2018-05-11T08:44:50.219Z,13.7
2018-05-11T08:46:16.200Z,13.7
2018-05-11T08:47:15.815Z,13.8
2018-05-11T08:48:15.049Z,13.8
2018-05-11T08:49:14.388Z,13.8
2018-05-11T08:50:13.101Z,13.8
2018-05-11T08:51:12.826Z,13.8
2018-05-11T08:52:12.154Z,13.8
2018-05-11T08:53:10.986Z,13.7
2018-05-11T08:53:41.722Z,13.7
2018-05-11T08:54:11.960Z,13.8
2018-05-11T08:54:42.487Z,13.8
2018-05-11T08:55:13.239Z,13.8
2018-05-11T08:55:43.702Z,13.8
2018-05-11T08:57:08.570Z,13.9
2018-05-11T08:57:38.715Z,13.9
2018-05-11T08:59:06.621Z,14
2018-05-11T09:00:06.065Z,14
2018-05-11T09:01:05.498Z,14.1
2018-05-11T09:02:04.834Z,14.1
2018-05-11T09:03:03.997Z,14.1
2018-05-11T09:04:02.839Z,14.2
2018-05-11T09:05:01.851Z,14.2
2018-05-11T09:05:32.491Z,14.2
2018-05-11T09:06:02.950Z,14.2
2018-05-11T09:06:33.593Z,14.2
2018-05-11T09:07:04.123Z,14.2
2018-05-11T09:07:34.872Z,14.2
2018-05-11T09:08:59.465Z,14.1
2018-05-11T09:09:58.688Z,14.1
2018-05-11T09:10:58.009Z,14.2
2018-05-11T09:11:57.222Z,14.2
2018-05-11T09:12:56.440Z,14.1
2018-05-11T09:13:55.877Z,14.1
2018-05-11T09:14:54.805Z,14.2
2018-05-11T09:15:54.132Z,14.1
2018-05-11T09:16:53.561Z,14.1
2018-05-11T09:17:52.888Z,14.2
2018-05-11T09:18:52.110Z,14.2
2018-05-11T09:19:51.211Z,14.2
2018-05-11T09:20:50.531Z,14.2
2018-05-11T09:21:49.755Z,14.3
2018-05-11T09:22:48.979Z,14.3
2018-05-11T09:23:48.203Z,14.3
2018-05-11T09:24:47.420Z,14.4
2018-05-11T09:25:17.956Z,14.4
2018-05-11T09:25:48.587Z,14.4
2018-05-11T09:26:19.003Z,14.4
2018-05-11T09:27:45.624Z,14.4
2018-05-11T09:28:44.385Z,14.4
2018-05-11T09:30:42.884Z,14.5
2018-05-11T09:31:42.402Z,14.5
2018-05-11T09:32:41.716Z,14.5
2018-05-11T09:33:41.142Z,14.5
2018-05-11T09:34:40.371Z,14.6
2018-05-11T09:35:39.086Z,14.6
2018-05-11T09:36:09.835Z,14.6
2018-05-11T09:37:37.859Z,14.7
2018-05-11T09:38:07.773Z,14.7
2018-05-11T09:38:38.190Z,14.7
2018-05-11T09:39:36.896Z,14.8
2018-05-11T09:41:35.168Z,14.8
2018-05-11T09:42:34.383Z,14.7
2018-05-11T09:43:33.327Z,14.7
2018-05-11T09:44:32.665Z,14.7
2018-05-11T09:45:31.883Z,14.7
2018-05-11T09:46:31.312Z,14.8
2018-05-11T09:47:01.858Z,14.8
2018-05-11T09:47:31.861Z,14.9
2018-05-11T09:48:02.174Z,14.9
2018-05-11T09:48:32.810Z,14.9
2018-05-11T09:49:02.953Z,14.9
2018-05-11T09:49:34.347Z,14.8
2018-05-11T09:50:28.758Z,14.8
2018-05-11T09:51:27.579Z,14.9
2018-05-11T09:52:26.679Z,14.9
2018-05-11T09:53:26.511Z,14.9
2018-05-11T09:54:25.231Z,15
2018-05-11T09:55:25.059Z,15
2018-05-11T09:56:23.898Z,15
2018-05-11T09:57:23.121Z,15
2018-05-11T09:58:22.225Z,15
2018-05-11T09:59:21.845Z,15.1
2018-05-11T10:00:21.057Z,15
2018-05-11T10:01:20.378Z,15.1
2018-05-11T10:02:19.595Z,15.1
2018-05-11T10:03:19.031Z,15.2
2018-05-11T10:04:18.237Z,15.2
2018-05-11T10:05:17.564Z,15.2
2018-05-11T10:06:16.692Z,15.2
2018-05-11T10:07:16.133Z,15.2
2018-05-11T10:07:46.536Z,15.2
2018-05-11T10:08:16.792Z,15.2
2018-05-11T10:09:14.397Z,15.1
2018-05-11T10:10:14.327Z,15.2
2018-05-11T10:11:13.047Z,15.2
2018-05-11T10:12:12.484Z,15.3
2018-05-11T10:13:11.701Z,15.3
2018-05-11T10:14:10.820Z,15.4
2018-05-11T10:15:10.443Z,15.2
2018-05-11T10:16:09.902Z,15.3
2018-05-11T10:17:09.347Z,15.4
2018-05-11T10:18:07.954Z,15.4
2018-05-11T10:19:07.689Z,15.4
2018-05-11T10:20:07.205Z,15.4
2018-05-11T10:21:05.928Z,15.5
2018-05-11T10:23:04.533Z,15.5
2018-05-11T10:24:03.651Z,15.5
2018-05-11T10:25:03.501Z,15.5
2018-05-11T10:26:02.515Z,15.5
2018-05-11T10:27:01.515Z,15.5
2018-05-11T10:28:01.345Z,15.6
2018-05-11T10:29:00.559Z,15.6
2018-05-11T10:29:59.884Z,15.6
2018-05-11T10:30:58.884Z,15.7
2018-05-11T10:31:58.111Z,15.6
2018-05-11T10:32:57.536Z,15.6
2018-05-11T10:33:27.786Z,15.6
2018-05-11T10:33:57.922Z,15.7
2018-05-11T10:35:55.627Z,15.8
2018-05-11T10:36:54.742Z,15.8
2018-05-11T10:37:53.962Z,15.9
2018-05-11T10:38:53.390Z,15.9
2018-05-11T10:39:52.911Z,16
2018-05-11T10:40:51.634Z,15.8
2018-05-11T10:41:51.276Z,15.9
2018-05-11T10:42:50.710Z,15.9
2018-05-11T10:43:20.940Z,15.9
2018-05-11T10:43:51.603Z,15.9
2018-05-11T10:44:21.631Z,15.9
2018-05-11T10:44:52.370Z,15.8
2018-05-11T10:45:48.287Z,15.9
2018-05-11T10:46:47.619Z,15.9
2018-05-11T10:48:47.036Z,15.9
2018-05-11T10:49:45.489Z,15.9
2018-05-11T10:50:44.713Z,16
2018-05-11T10:52:43.460Z,16.1
2018-05-11T10:53:42.776Z,16.1
2018-05-11T10:55:41.378Z,16.3
2018-05-11T10:56:40.596Z,16.4
2018-05-11T10:57:39.809Z,16.4
2018-05-11T10:58:39.022Z,16.5
2018-05-11T10:59:38.252Z,16.6
2018-05-11T11:00:37.466Z,16.7
2018-05-11T11:01:37.306Z,16.8
2018-05-11T11:02:36.650Z,16.9
2018-05-11T11:03:07.389Z,16.9
2018-05-11T11:04:34.692Z,16.8
2018-05-11T11:05:34.432Z,16.9
2018-05-11T11:06:33.758Z,16.9
2018-05-11T11:08:32.368Z,16.8
2018-05-11T11:09:31.575Z,16.7
2018-05-11T11:10:30.912Z,16.7
2018-05-11T11:11:30.053Z,16.8
2018-05-11T11:12:29.376Z,16.8
2018-05-11T11:13:28.814Z,16.8
2018-05-11T11:13:58.955Z,16.8
2018-05-11T11:14:29.698Z,16.8
2018-05-11T11:14:59.826Z,16.8
2018-05-11T11:15:30.566Z,16.8
2018-05-11T11:16:00.810Z,16.8
2018-05-11T11:17:26.089Z,17
2018-05-11T11:18:25.304Z,17
2018-05-11T11:19:24.775Z,17.1
2018-05-11T11:20:24.214Z,17.2
2018-05-11T11:21:23.429Z,17.3
2018-05-11T11:22:22.551Z,17.5
2018-05-11T11:23:21.871Z,17.6
2018-05-11T11:24:21.194Z,17.6
2018-05-11T11:24:51.726Z,17.6
2018-05-11T11:25:22.445Z,17.7
2018-05-11T11:25:53.385Z,17.7
2018-05-11T11:26:23.420Z,17.7
2018-05-11T11:26:53.953Z,17.7
2018-05-11T11:28:18.446Z,17.8
2018-05-11T11:29:17.772Z,17.9
2018-05-11T11:30:16.878Z,17.9
2018-05-11T11:32:15.992Z,17.9
2018-05-11T11:33:15.252Z,17.9
2018-05-11T11:34:14.860Z,18
2018-05-11T11:35:14.171Z,18.2
2018-05-11T11:36:12.975Z,18.3
2018-05-11T11:37:12.421Z,18.4
2018-05-11T11:38:11.753Z,18.6
2018-05-11T11:39:10.861Z,18.4
2018-05-11T11:40:10.708Z,18.5
2018-05-11T11:41:10.488Z,18.5
2018-05-11T11:42:09.852Z,18.3
2018-05-11T11:43:08.736Z,18.2
2018-05-11T11:44:07.962Z,18.1
2018-05-11T11:45:07.392Z,18.2
2018-05-11T11:46:06.823Z,18
2018-05-11T11:48:05.665Z,18
2018-05-11T11:49:05.004Z,18
2018-05-11T11:50:03.834Z,18
2018-05-11T11:51:03.282Z,18
2018-05-11T11:52:02.291Z,17.9
2018-05-11T11:53:02.126Z,18
2018-05-11T11:54:01.238Z,18
2018-05-11T11:56:00.471Z,18
2018-05-11T11:56:59.074Z,18.1
2018-05-11T11:57:29.490Z,18.1
2018-05-11T11:58:00.281Z,18.1
2018-05-11T11:58:30.807Z,18.1
2018-05-11T11:59:57.743Z,18.1
2018-05-11T12:00:56.855Z,17.7
2018-05-11T12:01:56.564Z,17.7
2018-05-11T12:02:55.422Z,17.8
2018-05-11T12:03:54.759Z,17.8
2018-05-11T12:04:54.084Z,17.8
2018-05-11T12:05:53.399Z,17.8
2018-05-11T12:06:52.718Z,17.9
2018-05-11T12:07:52.037Z,18.1
2018-05-11T12:08:52.163Z,18.3
2018-05-11T12:09:50.985Z,18.4
2018-05-11T12:10:50.327Z,18.5
2018-05-11T12:11:49.664Z,18.7
2018-05-11T12:14:47.883Z,19.4
2018-05-11T12:15:47.193Z,19.5
2018-05-11T12:16:46.420Z,19.7
2018-05-11T12:18:45.245Z,20.1
2018-05-11T12:19:44.572Z,20.2
2018-05-11T12:20:43.797Z,20.1
2018-05-11T12:21:43.222Z,20.2
2018-05-11T12:22:42.935Z,20.3
2018-05-11T12:23:42.159Z,20.2
2018-05-11T12:24:41.490Z,20.1
2018-05-11T12:25:40.614Z,19.9
2018-05-11T12:26:40.556Z,19.9
2018-05-11T12:27:39.887Z,19.9
2018-05-11T12:28:39.119Z,19.8
2018-05-11T12:30:37.584Z,19.5
2018-05-11T12:31:37.406Z,19.2
2018-05-11T12:32:36.809Z,18.9
2018-05-11T12:33:36.234Z,18.7
2018-05-11T12:34:35.446Z,18.7
2018-05-11T12:36:34.053Z,18.2
2018-05-11T12:37:33.368Z,18.3
2018-05-11T12:38:32.993Z,18.3
2018-05-11T12:39:32.242Z,18.2
2018-05-11T12:40:31.458Z,18.2
2018-05-11T12:41:30.884Z,18.1
2018-05-11T12:42:30.213Z,18
2018-05-11T12:43:29.650Z,18
2018-05-11T12:44:29.093Z,18.1
2018-05-11T12:45:28.312Z,18.1
2018-05-11T12:46:28.258Z,18.1
2018-05-11T12:47:27.107Z,18.3
2018-05-11T12:48:26.533Z,18.6
2018-05-11T12:49:26.263Z,18.9
2018-05-11T12:50:25.601Z,19.1
2018-05-11T12:51:25.038Z,19.4
2018-05-11T12:52:24.039Z,19.8
2018-05-11T12:53:23.471Z,20.1
2018-05-11T12:54:23.310Z,20.3
2018-05-11T12:55:22.636Z,20.6
2018-05-11T12:57:21.349Z,21.1
2018-05-11T12:58:20.671Z,21.4
2018-05-11T12:59:20.000Z,21.6
2018-05-11T13:00:18.901Z,21.9
2018-05-11T13:01:18.521Z,22.1
2018-05-11T13:02:18.451Z,22.1